sensor_id;sensor_type;location;lat;lon;timestamp;pressure;altitude;pressure_sealevel;temperature
61189;BMP280;47054;39.716;2.904;2023-07-22T19:19:22;100282.34;;;31.29
61189;BMP280;47054;39.716;2.904;2023-07-22T19:22:10;100289.44;;;31.59
61189;BMP280;47054;39.716;2.904;2023-07-22T19:24:55;100295.91;;;31.85
61189;BMP280;47054;39.716;2.904;2023-07-22T19:27:40;100292.56;;;32.04
61189;BMP280;47054;39.716;2.904;2023-07-22T19:30:25;100301.25;;;32.17
61189;BMP280;47054;39.716;2.904;2023-07-22T19:33:10;100289.22;;;32.29
61189;BMP280;47054;39.716;2.904;2023-07-22T19:38:49;100283.72;;;32.44
61189;BMP280;47054;39.716;2.904;2023-07-22T19:41:34;100281.53;;;32.48
61189;BMP280;47054;39.716;2.904;2023-07-22T19:44:19;100277.84;;;32.51
61189;BMP280;47054;39.716;2.904;2023-07-22T19:47:05;100288.63;;;32.54
61189;BMP280;47054;39.716;2.904;2023-07-22T19:49:50;100300.63;;;32.57
61189;BMP280;47054;39.716;2.904;2023-07-22T19:52:35;100300.16;;;32.58
61189;BMP280;47054;39.716;2.904;2023-07-22T19:55:20;100294.22;;;32.60
61189;BMP280;47054;39.716;2.904;2023-07-22T19:58:05;100289.66;;;32.57
61189;BMP280;47054;39.716;2.904;2023-07-22T20:00:50;100303.69;;;32.59
61189;BMP280;47054;39.716;2.904;2023-07-22T20:03:35;100325.63;;;32.59
61189;BMP280;47054;39.716;2.904;2023-07-22T20:06:20;100344.56;;;32.57
61189;BMP280;47054;39.716;2.904;2023-07-22T20:09:05;100359.25;;;32.54
61189;BMP280;47054;39.716;2.904;2023-07-22T20:11:49;100357.44;;;32.51
61189;BMP280;47054;39.716;2.904;2023-07-22T20:14:34;100383.88;;;32.48
61189;BMP280;47054;39.716;2.904;2023-07-22T20:17:19;100378.09;;;32.46
61189;BMP280;47054;39.716;2.904;2023-07-22T20:20:05;100373.53;;;32.43
61189;BMP280;47054;39.716;2.904;2023-07-22T20:22:49;100379.97;;;32.40
61189;BMP280;47054;39.716;2.904;2023-07-22T20:25:34;100391.91;;;32.37
61189;BMP280;47054;39.716;2.904;2023-07-22T20:28:21;100369.88;;;32.32
61189;BMP280;47054;39.716;2.904;2023-07-22T20:31:06;100364.84;;;32.30
61189;BMP280;47054;39.716;2.904;2023-07-22T20:33:51;100355.31;;;32.26
61189;BMP280;47054;39.716;2.904;2023-07-22T20:36:35;100356.97;;;32.23
61189;BMP280;47054;39.716;2.904;2023-07-22T20:39:20;100358.44;;;32.19
61189;BMP280;47054;39.716;2.904;2023-07-22T20:42:04;100363.59;;;32.17
61189;BMP280;47054;39.716;2.904;2023-07-22T20:44:50;100362.56;;;32.14
61189;BMP280;47054;39.716;2.904;2023-07-22T20:47:35;100381.97;;;32.11
61189;BMP280;47054;39.716;2.904;2023-07-22T20:50:20;100383.34;;;32.06
61189;BMP280;47054;39.716;2.904;2023-07-22T20:53:04;100377.59;;;32.04
61189;BMP280;47054;39.716;2.904;2023-07-22T20:55:49;100391.00;;;32.02
61189;BMP280;47054;39.716;2.904;2023-07-22T20:58:33;100391.69;;;31.97
61189;BMP280;47054;39.716;2.904;2023-07-22T21:01:18;100380.72;;;31.97
61189;BMP280;47054;39.716;2.904;2023-07-22T21:04:02;100383.63;;;31.94
61189;BMP280;47054;39.716;2.904;2023-07-22T21:06:47;100387.31;;;31.91
61189;BMP280;47054;39.716;2.904;2023-07-22T21:09:32;100409.44;;;31.87
61189;BMP280;47054;39.716;2.904;2023-07-22T21:12:17;100447.50;;;31.85
61189;BMP280;47054;39.716;2.904;2023-07-22T21:15:02;100482.56;;;31.81
61189;BMP280;47054;39.716;2.904;2023-07-22T21:17:49;100496.19;;;31.76
61189;BMP280;47054;39.716;2.904;2023-07-22T21:20:35;100490.09;;;31.72
61189;BMP280;47054;39.716;2.904;2023-07-22T21:23:20;100465.00;;;31.64
61189;BMP280;47054;39.716;2.904;2023-07-22T21:26:05;100477.53;;;31.56
61189;BMP280;47054;39.716;2.904;2023-07-22T21:28:49;100486.38;;;31.51
61189;BMP280;47054;39.716;2.904;2023-07-22T21:31:34;100493.25;;;31.47
61189;BMP280;47054;39.716;2.904;2023-07-22T21:34:19;100487.97;;;31.43
61189;BMP280;47054;39.716;2.904;2023-07-22T21:37:04;100479.13;;;31.39
61189;BMP280;47054;39.716;2.904;2023-07-22T21:39:49;100466.06;;;31.34
61189;BMP280;47054;39.716;2.904;2023-07-22T21:42:34;100460.44;;;31.29
61189;BMP280;47054;39.716;2.904;2023-07-22T21:45:19;100465.63;;;31.27
61189;BMP280;47054;39.716;2.904;2023-07-22T21:48:04;100479.81;;;31.25
61189;BMP280;47054;39.716;2.904;2023-07-22T21:50:50;100470.97;;;31.21
61189;BMP280;47054;39.716;2.904;2023-07-22T21:53:34;100476.94;;;31.20
61189;BMP280;47054;39.716;2.904;2023-07-22T21:56:18;100471.91;;;31.18
61189;BMP280;47054;39.716;2.904;2023-07-22T21:59:03;100472.38;;;31.17
61189;BMP280;47054;39.716;2.904;2023-07-22T22:05:27;100469.19;;;31.09
61189;BMP280;47054;39.716;2.904;2023-07-22T22:08:12;100465.41;;;31.07
61189;BMP280;47054;39.716;2.904;2023-07-22T22:10:57;100464.50;;;31.01
61189;BMP280;47054;39.716;2.904;2023-07-22T22:13:41;100476.97;;;31.02
61189;BMP280;47054;39.716;2.904;2023-07-22T22:16:26;100473.34;;;30.96
61189;BMP280;47054;39.716;2.904;2023-07-22T22:19:11;100480.19;;;30.91
61189;BMP280;47054;39.716;2.904;2023-07-22T22:21:56;100488.09;;;30.89
61189;BMP280;47054;39.716;2.904;2023-07-22T22:24:40;100487.81;;;30.87
61189;BMP280;47054;39.716;2.904;2023-07-22T22:27:26;100485.50;;;30.86
61189;BMP280;47054;39.716;2.904;2023-07-22T22:30:10;100480.03;;;30.86
61189;BMP280;47054;39.716;2.904;2023-07-22T22:32:55;100488.41;;;30.82
61189;BMP280;47054;39.716;2.904;2023-07-22T22:35:40;100492.09;;;30.79
61189;BMP280;47054;39.716;2.904;2023-07-22T22:38:26;100471.09;;;30.76
61189;BMP280;47054;39.716;2.904;2023-07-22T22:41:11;100480.50;;;30.75
61189;BMP280;47054;39.716;2.904;2023-07-22T22:43:56;100482.50;;;30.65
61189;BMP280;47054;39.716;2.904;2023-07-22T22:46:41;100490.28;;;30.67
61189;BMP280;47054;39.716;2.904;2023-07-22T22:49:28;100479.00;;;30.65
61189;BMP280;47054;39.716;2.904;2023-07-22T22:52:13;100467.94;;;30.59
61189;BMP280;47054;39.716;2.904;2023-07-22T22:54:58;100466.09;;;30.56
61189;BMP280;47054;39.716;2.904;2023-07-22T22:57:42;100454.53;;;30.52
61189;BMP280;47054;39.716;2.904;2023-07-22T23:00:30;100450.28;;;30.51
61189;BMP280;47054;39.716;2.904;2023-07-22T23:03:15;100441.31;;;30.51
61189;BMP280;47054;39.716;2.904;2023-07-22T23:06:00;100439.50;;;30.48
61189;BMP280;47054;39.716;2.904;2023-07-22T23:08:56;100446.63;;;30.45
61189;BMP280;47054;39.716;2.904;2023-07-22T23:11:41;100463.06;;;30.45
61189;BMP280;47054;39.716;2.904;2023-07-22T23:14:25;100465.16;;;30.41
61189;BMP280;47054;39.716;2.904;2023-07-22T23:17:10;100473.38;;;30.41
61189;BMP280;47054;39.716;2.904;2023-07-22T23:19:56;100478.84;;;30.41
61189;BMP280;47054;39.716;2.904;2023-07-22T23:22:41;100456.66;;;30.30
61189;BMP280;47054;39.716;2.904;2023-07-22T23:25:26;100470.34;;;30.39
61189;BMP280;47054;39.716;2.904;2023-07-22T23:28:10;100449.66;;;30.38
61189;BMP280;47054;39.716;2.904;2023-07-22T23:30:55;100457.41;;;30.40
61189;BMP280;47054;39.716;2.904;2023-07-22T23:33:40;100443.28;;;30.41
61189;BMP280;47054;39.716;2.904;2023-07-22T23:36:25;100445.59;;;30.43
61189;BMP280;47054;39.716;2.904;2023-07-22T23:39:15;100438.88;;;30.44
61189;BMP280;47054;39.716;2.904;2023-07-22T23:42:01;100438.09;;;30.43
61189;BMP280;47054;39.716;2.904;2023-07-22T23:44:47;100432.63;;;30.43
61189;BMP280;47054;39.716;2.904;2023-07-22T23:47:32;100425.66;;;30.42
61189;BMP280;47054;39.716;2.904;2023-07-22T23:50:18;100416.97;;;30.44
61189;BMP280;47054;39.716;2.904;2023-07-22T23:53:03;100413.47;;;30.43
61189;BMP280;47054;39.716;2.904;2023-07-22T23:55:47;100406.03;;;30.44
61189;BMP280;47054;39.716;2.904;2023-07-22T23:58:32;100398.59;;;30.44
